Time;durP1;ratioP1;P1;durP2;ratioP2;P2;SDS_P1;SDS_P2;PMS_P1;PMS_P2;Temp;Humidity;BMP_temperature;BMP_pressure;BME280_temperature;BME280_humidity;BME280_pressure;Samples;Min_cycle;Max_cycle;Signal;HPM_P1;HPM_P2
2022/01/11 00:00:21;;;;;;;0.30;0.20;;;;;;;8.68;100.00;94343.81;5136490;27;20426;-54
2022/01/11 00:02:53;;;;;;;0.30;0.30;;;;;;;8.87;100.00;94352.59;5136244;27;20538;-55
2022/01/11 00:05:26;;;;;;;0.30;0.20;;;;;;;9.16;100.00;94349.88;5136593;27;20935;-55
2022/01/11 00:07:56;;;;;;;0.30;0.20;;;;;;;8.54;100.00;94324.44;5136325;27;20464;-54
2022/01/11 00:10:28;;;;;;;0.30;0.20;;;;;;;8.43;100.00;94330.09;5136752;27;20430;-54
2022/01/11 00:12:59;;;;;;;0.30;0.20;;;;;;;8.60;100.00;94347.06;5136217;27;20813;-54
2022/01/11 00:15:28;;;;;;;0.30;0.20;;;;;;;8.36;100.00;94338.34;5135548;27;20490;-54
2022/01/11 00:17:58;;;;;;;0.50;0.50;;;;;;;8.27;100.00;94346.06;5136562;27;20913;-55
2022/01/11 00:20:28;;;;;;;0.37;0.30;;;;;;;8.12;100.00;94325.06;5135964;27;20441;-55
2022/01/11 00:25:43;;;;;;;0.40;0.30;;;;;;;8.96;100.00;94368.59;5135599;27;20958;-54
2022/01/11 00:28:13;;;;;;;0.30;0.20;;;;;;;8.86;100.00;94360.78;5135516;27;20918;-55
2022/01/11 00:30:44;;;;;;;0.30;0.20;;;;;;;8.95;100.00;94385.56;5135902;27;20418;-55
2022/01/11 00:33:16;;;;;;;0.30;0.20;;;;;;;8.99;100.00;94359.34;5135364;27;20508;-55
2022/01/11 00:35:49;;;;;;;0.30;0.20;;;;;;;9.08;100.00;94390.16;5135343;27;20424;-54
2022/01/11 00:38:19;;;;;;;0.30;0.20;;;;;;;9.29;100.00;94388.84;5135883;27;20462;-54
2022/01/11 00:40:49;;;;;;;0.40;0.20;;;;;;;9.24;100.00;94382.81;5135027;27;20423;-55
2022/01/11 00:43:19;;;;;;;0.30;0.20;;;;;;;8.48;100.00;94359.88;5136068;27;20430;-54
2022/01/11 00:45:49;;;;;;;0.30;0.30;;;;;;;8.76;100.00;94385.47;5135420;27;20485;-55
2022/01/11 00:48:17;;;;;;;0.30;0.20;;;;;;;8.61;100.00;94396.19;5135716;27;20453;-55
2022/01/11 00:50:47;;;;;;;0.30;0.20;;;;;;;8.72;100.00;94402.16;5135720;27;20419;-55
2022/01/11 00:53:16;;;;;;;0.30;0.20;;;;;;;8.26;100.00;94314.66;5135417;27;20890;-55
2022/01/11 00:55:47;;;;;;;0.50;0.47;;;;;;;9.07;100.00;94387.78;5135364;27;20476;-55
2022/01/11 00:58:17;;;;;;;0.30;0.20;;;;;;;9.19;100.00;94398.75;5135079;27;20849;-55
2022/01/11 01:00:47;;;;;;;0.30;0.20;;;;;;;9.41;100.00;94412.25;5134780;27;20418;-55
2022/01/11 01:03:16;;;;;;;0.30;0.20;;;;;;;8.84;100.00;94336.53;5134905;27;20962;-55
2022/01/11 01:05:45;;;;;;;0.30;0.20;;;;;;;9.03;100.00;94381.50;5135812;27;20431;-55
2022/01/11 01:08:14;;;;;;;0.30;0.20;;;;;;;8.06;100.00;94299.81;5134614;27;20427;-55
2022/01/11 01:10:47;;;;;;;0.30;0.20;;;;;;;8.56;100.00;94383.03;5135345;27;20419;-55
2022/01/11 01:13:20;;;;;;;0.30;0.20;;;;;;;8.68;100.00;94406.41;5134078;27;20995;-55
2022/01/11 01:15:51;;;;;;;0.40;0.30;;;;;;;8.21;100.00;94349.81;5135252;27;20790;-55
2022/01/11 01:18:22;;;;;;;0.30;0.20;;;;;;;8.68;100.00;94407.22;5135153;27;20506;-54
2022/01/11 01:20:52;;;;;;;0.30;0.20;;;;;;;8.75;100.00;94401.63;5134228;27;20487;-54
2022/01/11 01:23:21;;;;;;;0.30;0.20;;;;;;;8.15;100.00;94387.06;5135382;27;20430;-54
2022/01/11 01:25:50;;;;;;;0.30;0.20;;;;;;;8.09;100.00;94367.06;5134901;27;20426;-54
2022/01/11 01:28:21;;;;;;;0.30;0.20;;;;;;;8.33;100.00;94383.78;5135295;27;20476;-54
2022/01/11 01:30:51;;;;;;;0.30;0.20;;;;;;;8.49;100.00;94398.44;5134328;27;20986;-54
2022/01/11 01:33:21;;;;;;;0.30;0.20;;;;;;;8.28;100.00;94397.81;5134514;27;20462;-54
2022/01/11 01:35:54;;;;;;;0.30;0.20;;;;;;;7.55;100.00;94290.72;5134567;27;20840;-54
2022/01/11 01:38:24;;;;;;;0.30;0.20;;;;;;;8.22;100.00;94346.09;5134736;27;20914;-54
2022/01/11 01:40:59;;;;;;;0.30;0.20;;;;;;;8.27;100.00;94361.91;5134508;27;20427;-54
2022/01/11 01:43:29;;;;;;;0.30;0.20;;;;;;;8.09;100.00;94349.38;5134617;27;20486;-54
2022/01/11 01:46:00;;;;;;;0.30;0.30;;;;;;;8.11;100.00;94349.09;5134134;27;20792;-54
2022/01/11 01:48:29;;;;;;;0.30;0.20;;;;;;;8.26;100.00;94372.72;5134871;27;20840;-54
2022/01/11 01:50:58;;;;;;;0.30;0.20;;;;;;;8.09;100.00;94370.50;5134201;27;20888;-54
2022/01/11 01:53:27;;;;;;;0.30;0.20;;;;;;;8.10;100.00;94366.78;5134348;27;20462;-54
2022/01/11 01:55:56;;;;;;;0.30;0.20;;;;;;;8.29;100.00;94374.84;5134322;27;20898;-54
2022/01/11 01:58:43;;;;;;;0.30;0.20;;;;;;;8.16;100.00;94362.25;5134272;27;20431;-54
2022/01/11 02:01:14;;;;;;;0.30;0.20;;;;;;;8.25;100.00;94376.41;5133957;27;20840;-54
2022/01/11 02:03:44;;;;;;;0.30;0.20;;;;;;;8.02;100.00;94358.69;5134217;27;20423;-54
2022/01/11 02:06:16;;;;;;;0.30;0.20;;;;;;;8.27;100.00;94379.63;5134037;27;20961;-54
2022/01/11 02:08:46;;;;;;;0.30;0.20;;;;;;;8.38;100.00;94375.00;5134142;27;20465;-54
2022/01/11 02:11:16;;;;;;;0.30;0.30;;;;;;;8.27;100.00;94355.88;5134423;27;20847;-54
2022/01/11 02:13:45;;;;;;;0.30;0.20;;;;;;;8.39;100.00;94364.19;5133895;27;20519;-54
2022/01/11 02:16:16;;;;;;;0.30;0.20;;;;;;;8.29;100.00;94366.94;5133850;27;20487;-54
2022/01/11 02:18:46;;;;;;;0.30;0.20;;;;;;;8.42;100.00;94373.41;5132502;27;20422;-54
2022/01/11 02:21:16;;;;;;;0.40;0.40;;;;;;;8.31;100.00;94370.06;5133437;27;20475;-54
2022/01/11 02:23:45;;;;;;;0.30;0.20;;;;;;;7.73;100.00;94289.25;5133899;27;20491;-54
2022/01/11 02:26:14;;;;;;;0.30;0.20;;;;;;;7.78;100.00;94305.84;5133261;27;20456;-54
2022/01/11 02:28:42;;;;;;;0.30;0.20;;;;;;;8.27;100.00;94374.34;5133747;27;20437;-54
2022/01/11 02:31:13;;;;;;;0.30;0.20;;;;;;;8.06;100.00;94355.22;5132961;27;20427;-54
2022/01/11 02:33:44;;;;;;;0.30;0.20;;;;;;;8.17;100.00;94364.59;5133539;27;20966;-54
2022/01/11 02:36:18;;;;;;;0.30;0.20;;;;;;;8.19;100.00;94377.53;5133667;27;20423;-54
2022/01/11 02:38:47;;;;;;;0.83;0.83;;;;;;;8.13;100.00;94339.06;5133368;27;20483;-54
2022/01/11 02:41:16;;;;;;;0.30;0.20;;;;;;;8.27;100.00;94369.06;5132829;27;21011;-54
2022/01/11 02:43:47;;;;;;;0.40;0.20;;;;;;;7.19;100.00;94205.84;5133418;27;20462;-54
2022/01/11 02:46:19;;;;;;;0.70;0.30;;;;;;;8.48;100.00;94373.06;5133266;27;20513;-54
2022/01/11 02:48:48;;;;;;;0.30;0.20;;;;;;;8.67;100.00;94376.59;5133409;27;20422;-54
2022/01/11 02:51:19;;;;;;;0.30;0.20;;;;;;;8.31;100.00;94372.72;5132718;27;20464;-54
2022/01/11 02:53:49;;;;;;;0.30;0.20;;;;;;;8.29;100.00;94375.63;5133086;27;20454;-54
2022/01/11 02:56:19;;;;;;;0.50;0.50;;;;;;;8.39;100.00;94382.69;5132801;27;20471;-54
2022/01/11 02:58:47;;;;;;;0.30;0.30;;;;;;;8.28;100.00;94391.75;5133382;27;20471;-55
2022/01/11 03:01:16;;;;;;;0.30;0.20;;;;;;;8.45;100.00;94386.81;5132871;27;20990;-53
2022/01/11 03:03:47;;;;;;;0.30;0.20;;;;;;;8.21;100.00;94380.69;5133353;27;20866;-53
2022/01/11 03:06:15;;;;;;;0.30;0.20;;;;;;;8.28;100.00;94383.81;5133278;27;20415;-55
2022/01/11 03:08:47;;;;;;;0.30;0.20;;;;;;;7.96;100.00;94333.41;5132777;27;20470;-55
2022/01/11 03:11:18;;;;;;;0.30;0.20;;;;;;;8.32;100.00;94376.94;5132513;27;20430;-53
2022/01/11 03:13:47;;;;;;;0.30;0.20;;;;;;;8.19;100.00;94370.41;5132219;27;20919;-54
2022/01/11 03:16:17;;;;;;;0.30;0.20;;;;;;;8.06;100.00;94320.13;5132747;27;20430;-54
2022/01/11 03:18:47;;;;;;;0.40;0.40;;;;;;;8.42;100.00;94386.63;5132632;27;20483;-54
2022/01/11 03:21:15;;;;;;;0.30;0.20;;;;;;;8.36;100.00;94387.72;5132674;27;20475;-54
2022/01/11 03:23:45;;;;;;;0.30;0.20;;;;;;;7.33;100.00;94235.78;5133286;27;20422;-54
2022/01/11 03:26:14;;;;;;;0.30;0.20;;;;;;;8.52;100.00;94407.66;5132842;27;20794;-53
2022/01/11 03:28:42;;;;;;;0.30;0.20;;;;;;;8.53;100.00;94409.19;5132873;27;20423;-54
2022/01/11 03:31:11;;;;;;;0.30;0.20;;;;;;;8.55;100.00;94405.22;5136505;27;20547;-54
2022/01/11 03:33:39;;;;;;;0.30;0.20;;;;;;;8.39;100.00;94408.28;5139187;27;21005;-54
2022/01/11 03:36:08;;;;;;;0.30;0.20;;;;;;;8.23;100.00;94410.22;5139441;27;20458;-54
2022/01/11 03:38:37;;;;;;;0.30;0.20;;;;;;;7.21;100.00;94193.16;5139891;27;20450;-54
2022/01/11 03:41:07;;;;;;;0.30;0.20;;;;;;;8.04;100.00;94380.31;5138132;27;20495;-53
2022/01/11 03:43:37;;;;;;;0.30;0.20;;;;;;;7.40;100.00;94275.00;5139606;27;20487;-53
2022/01/11 03:46:05;;;;;;;0.30;0.20;;;;;;;8.13;100.00;94411.09;5138829;27;20937;-53
2022/01/11 03:48:34;;;;;;;0.30;0.20;;;;;;;8.79;100.00;94442.25;5139656;27;20426;-53
2022/01/11 03:51:03;;;;;;;0.30;0.20;;;;;;;8.63;100.00;94446.88;5138998;27;20499;-53
2022/01/11 03:53:39;;;;;;;0.30;0.20;;;;;;;8.76;100.00;94450.72;5139348;27;20878;-53
2022/01/11 03:56:21;;;;;;;0.30;0.20;;;;;;;8.86;100.00;94446.16;5139662;27;20547;-53
2022/01/11 03:58:51;;;;;;;0.30;0.20;;;;;;;8.49;100.00;94453.88;5138689;27;21075;-53
2022/01/11 04:01:21;;;;;;;0.30;0.20;;;;;;;8.41;100.00;94459.75;5138879;27;20981;-54
2022/01/11 04:03:50;;;;;;;0.30;0.20;;;;;;;8.14;100.00;94435.66;5139352;27;20501;-54
2022/01/11 04:06:20;;;;;;;0.30;0.20;;;;;;;8.21;100.00;94463.31;5138759;27;20419;-54
2022/01/11 04:08:48;;;;;;;0.30;0.20;;;;;;;8.41;100.00;94475.59;5139381;27;20426;-53
2022/01/11 04:11:18;;;;;;;0.30;0.20;;;;;;;8.50;100.00;94473.94;5138370;27;20418;-53
2022/01/11 04:13:47;;;;;;;0.30;0.20;;;;;;;8.36;100.00;94466.91;5138898;27;20465;-54
2022/01/11 04:16:16;;;;;;;0.30;0.20;;;;;;;7.91;100.00;94423.13;5139359;27;20494;-54
2022/01/11 04:18:45;;;;;;;0.30;0.20;;;;;;;7.84;100.00;94412.91;5138599;27;20517;-53
2022/01/11 04:21:13;;;;;;;0.30;0.20;;;;;;;8.32;100.00;94477.25;5138745;27;20488;-54
2022/01/11 04:23:42;;;;;;;0.30;0.20;;;;;;;7.12;100.00;94273.88;5139369;27;20434;-53
2022/01/11 04:26:11;;;;;;;0.30;0.20;;;;;;;8.45;100.00;94481.13;5138276;27;20430;-53
2022/01/11 04:28:41;;;;;;;0.30;0.20;;;;;;;8.40;100.00;94481.91;5139265;27;20457;-53
2022/01/11 04:31:09;;;;;;;0.30;0.20;;;;;;;8.45;100.00;94491.69;5138904;27;20469;-54
2022/01/11 04:33:42;;;;;;;0.30;0.20;;;;;;;8.13;99.30;94457.81;5139047;27;20430;-54
2022/01/11 04:36:12;;;;;;;0.63;0.40;;;;;;;7.77;99.01;94407.13;5138526;27;20465;-54
2022/01/11 04:38:42;;;;;;;0.40;0.37;;;;;;;8.38;99.97;94491.97;5138533;27;20435;-54
2022/01/11 04:41:10;;;;;;;0.30;0.20;;;;;;;8.49;100.00;94492.69;5138885;27;21065;-54
2022/01/11 04:43:40;;;;;;;0.30;0.20;;;;;;;8.32;96.92;94498.38;5135553;27;20467;-54
2022/01/11 04:46:09;;;;;;;0.40;0.30;;;;;;;7.92;96.95;94441.31;5135658;27;20414;-54
2022/01/11 04:48:38;;;;;;;0.30;0.20;;;;;;;8.17;96.88;94456.22;5135677;27;20435;-53
2022/01/11 04:51:07;;;;;;;0.30;0.20;;;;;;;8.63;96.14;94505.00;5135352;27;20418;-55
2022/01/11 04:53:35;;;;;;;0.30;0.20;;;;;;;8.88;94.85;94512.69;5135302;27;20473;-54
2022/01/11 04:56:04;;;;;;;0.30;0.20;;;;;;;7.97;93.85;94416.78;5135828;27;20498;-54
2022/01/11 04:58:33;;;;;;;0.30;0.20;;;;;;;8.32;98.81;94454.25;5134943;27;21003;-54
2022/01/11 05:01:03;;;;;;;0.30;0.20;;;;;;;8.56;93.75;94498.44;5135247;27;21003;-54
2022/01/11 05:03:32;;;;;;;0.30;0.20;;;;;;;8.78;91.42;94515.44;5135619;27;20434;-54
2022/01/11 05:06:01;;;;;;;0.30;0.20;;;;;;;8.71;94.55;94537.94;5134761;27;20475;-54
2022/01/11 05:08:30;;;;;;;0.30;0.20;;;;;;;8.21;91.79;94451.94;5135308;27;20483;-54
2022/01/11 05:10:59;;;;;;;0.30;0.20;;;;;;;8.61;92.22;94548.59;5134857;27;20906;-54
2022/01/11 05:13:27;;;;;;;0.40;0.30;;;;;;;8.84;94.51;94532.84;5135084;27;20870;-54
2022/01/11 05:15:56;;;;;;;1.23;1.23;;;;;;;8.46;95.82;94519.66;5135069;27;20462;-54
2022/01/11 05:18:26;;;;;;;0.33;0.30;;;;;;;8.45;96.92;94503.00;5134874;27;20433;-54
2022/01/11 05:20:55;;;;;;;0.30;0.20;;;;;;;8.51;91.24;94528.31;5135484;27;20920;-54
2022/01/11 05:23:23;;;;;;;0.30;0.20;;;;;;;8.68;90.15;94520.00;5134759;27;20845;-55
2022/01/11 05:25:52;;;;;;;0.30;0.20;;;;;;;8.41;91.54;94503.84;5135319;27;20465;-54
2022/01/11 05:28:20;;;;;;;0.30;0.20;;;;;;;8.61;95.20;94541.47;5135168;27;20887;-54
2022/01/11 05:30:49;;;;;;;0.30;0.20;;;;;;;7.40;92.50;94352.25;5134727;27;20460;-54
2022/01/11 05:33:18;;;;;;;0.30;0.20;;;;;;;8.42;90.14;94524.72;5133637;27;20460;-54
2022/01/11 05:35:48;;;;;;;0.30;0.20;;;;;;;8.48;89.11;94502.47;5135006;27;20918;-55
2022/01/11 05:38:16;;;;;;;0.30;0.20;;;;;;;8.79;87.68;94543.44;5134428;27;21010;-54
2022/01/11 05:40:45;;;;;;;0.30;0.20;;;;;;;8.29;88.39;94491.00;5134078;27;20846;-54
2022/01/11 05:43:14;;;;;;;0.30;0.20;;;;;;;8.76;88.61;94559.03;5134063;27;20979;-54
2022/01/11 05:45:44;;;;;;;0.30;0.20;;;;;;;8.26;91.54;94558.31;5134081;27;20475;-55
2022/01/11 05:48:12;;;;;;;0.43;0.43;;;;;;;8.41;93.09;94562.72;5133891;27;20922;-55
2022/01/11 05:50:43;;;;;;;0.30;0.30;;;;;;;7.15;95.44;94389.25;5134248;27;20515;-55
2022/01/11 05:53:13;;;;;;;0.30;0.20;;;;;;;8.48;99.33;94552.63;5133878;27;20422;-54
2022/01/11 05:55:42;;;;;;;0.30;0.20;;;;;;;7.91;92.54;94462.69;5134073;27;20506;-54
2022/01/11 05:58:13;;;;;;;0.30;0.20;;;;;;;8.39;90.50;94545.56;5133889;27;20437;-54
2022/01/11 06:00:42;;;;;;;0.30;0.20;;;;;;;8.35;92.85;94529.47;5133649;27;20471;-54
2022/01/11 06:03:11;;;;;;;0.30;0.20;;;;;;;8.07;90.99;94501.16;5133650;27;20484;-54
2022/01/11 06:05:40;;;;;;;0.53;0.53;;;;;;;7.67;95.11;94473.09;5133744;27;20481;-54
2022/01/11 06:08:09;;;;;;;0.30;0.20;;;;;;;8.12;92.31;94561.81;5134263;27;20439;-54
2022/01/11 06:10:39;;;;;;;0.30;0.20;;;;;;;8.34;90.87;94569.38;5133783;27;20844;-53
2022/01/11 06:13:08;;;;;;;0.30;0.30;;;;;;;7.02;90.32;94389.84;5133946;27;20450;-54
2022/01/11 06:15:36;;;;;;;0.30;0.20;;;;;;;8.25;94.53;94572.53;5134376;27;20439;-54
2022/01/11 06:18:06;;;;;;;0.30;0.20;;;;;;;7.77;92.73;94514.50;5133687;27;20841;-54
2022/01/11 06:20:34;;;;;;;0.87;0.80;;;;;;;7.90;92.40;94541.06;5132681;27;20461;-54
2022/01/11 06:23:03;;;;;;;0.30;0.20;;;;;;;7.10;100.00;94391.91;5133448;27;20430;-54
2022/01/11 06:25:31;;;;;;;0.30;0.20;;;;;;;6.72;94.25;94350.44;5133417;27;20418;-54
2022/01/11 06:28:01;;;;;;;0.53;0.53;;;;;;;8.14;89.72;94604.56;5133676;27;21071;-54
2022/01/11 06:30:30;;;;;;;0.30;0.20;;;;;;;8.18;89.18;94597.66;5133589;27;20431;-54
2022/01/11 06:32:59;;;;;;;0.30;0.20;;;;;;;7.66;90.11;94553.31;5133494;27;20418;-54
2022/01/11 06:35:27;;;;;;;0.30;0.20;;;;;;;8.27;90.50;94620.59;5133216;27;20462;-55
2022/01/11 06:37:56;;;;;;;0.30;0.20;;;;;;;8.22;88.70;94619.84;5133255;27;20533;-54
2022/01/11 06:40:25;;;;;;;0.30;0.20;;;;;;;6.87;87.95;94419.66;5133710;27;20487;-55
2022/01/11 06:42:53;;;;;;;0.30;0.20;;;;;;;8.36;88.78;94630.59;5133447;27;20931;-53
2022/01/11 06:45:24;;;;;;;0.40;0.30;;;;;;;8.34;83.83;94630.09;5133081;27;20477;-53
2022/01/11 06:47:53;;;;;;;0.30;0.20;;;;;;;7.72;84.28;94561.97;5133676;27;20517;-54
2022/01/11 06:50:22;;;;;;;0.30;0.30;;;;;;;8.31;89.01;94631.41;5133078;27;20469;-54
2022/01/11 06:52:51;;;;;;;0.43;0.40;;;;;;;8.26;83.60;94628.78;5132955;27;20472;-54
2022/01/11 06:55:20;;;;;;;0.40;0.40;;;;;;;7.26;85.99;94448.75;5132800;27;20462;-53
2022/01/11 06:57:49;;;;;;;0.30;0.20;;;;;;;8.41;81.93;94639.28;5132936;27;20474;-54
2022/01/11 07:00:19;;;;;;;0.40;0.30;;;;;;;8.22;82.38;94640.94;5132652;27;20977;-54
2022/01/11 07:02:50;;;;;;;0.30;0.20;;;;;;;8.41;82.37;94649.06;5132758;27;20466;-54
2022/01/11 07:05:19;;;;;;;0.30;0.20;;;;;;;7.28;83.02;94488.84;5132407;27;20491;-54
2022/01/11 07:07:47;;;;;;;0.30;0.30;;;;;;;8.35;80.98;94640.38;5133032;27;20434;-53
2022/01/11 07:10:16;;;;;;;0.80;0.43;;;;;;;7.62;80.67;94568.84;5132796;27;20966;-54
2022/01/11 07:12:44;;;;;;;0.30;0.20;;;;;;;8.13;81.46;94661.03;5133063;27;20458;-54
2022/01/11 07:15:14;;;;;;;0.60;0.60;;;;;;;7.60;82.58;94592.06;5132858;27;20487;-53
2022/01/11 07:17:43;;;;;;;0.30;0.23;;;;;;;7.36;82.17;94559.44;5132278;27;20971;-54
2022/01/11 07:20:13;;;;;;;0.30;0.20;;;;;;;8.05;81.05;94619.34;5132264;27;20499;-54
2022/01/11 07:22:42;;;;;;;0.30;0.20;;;;;;;7.25;81.22;94494.63;5132520;27;20973;-53
2022/01/11 07:25:10;;;;;;;0.60;0.40;;;;;;;8.35;79.42;94687.13;5132619;27;20423;-54
2022/01/11 07:27:39;;;;;;;0.30;0.30;;;;;;;8.38;82.40;94695.28;5132383;27;20430;-54
2022/01/11 07:30:10;;;;;;;0.40;0.40;;;;;;;7.53;97.74;94516.94;5132260;28;20454;-54
2022/01/11 07:32:38;;;;;;;0.30;0.20;;;;;;;8.55;90.18;94698.38;5132660;28;20422;-54
2022/01/11 07:35:07;;;;;;;0.30;0.20;;;;;;;8.45;84.22;94701.06;5131956;27;20434;-54
2022/01/11 07:37:37;;;;;;;0.30;0.20;;;;;;;8.64;80.81;94709.16;5132587;28;20489;-54
2022/01/11 07:40:07;;;;;;;0.50;0.50;;;;;;;8.52;84.06;94709.50;5132565;27;20426;-54
2022/01/11 07:42:36;;;;;;;0.30;0.20;;;;;;;7.26;82.36;94534.97;5132072;28;20422;-54
2022/01/11 07:45:05;;;;;;;0.30;0.20;;;;;;;8.53;85.47;94711.06;5132470;28;20819;-54
2022/01/11 07:47:33;;;;;;;0.30;0.20;;;;;;;8.60;81.72;94711.56;5132528;27;20458;-53
2022/01/11 07:50:03;;;;;;;0.30;0.20;;;;;;;8.57;83.54;94711.31;5132714;28;20785;-53
2022/01/11 07:52:31;;;;;;;0.30;0.20;;;;;;;8.53;83.82;94711.06;5132367;28;20507;-54
2022/01/11 07:55:01;;;;;;;0.50;0.50;;;;;;;8.50;87.64;94698.38;5132207;27;20430;-53
2022/01/11 07:57:30;;;;;;;0.30;0.30;;;;;;;8.72;85.52;94722.63;5132409;28;20522;-53
2022/01/11 07:59:58;;;;;;;0.30;0.20;;;;;;;8.54;82.16;94723.22;5132219;28;20487;-53
2022/01/11 08:02:27;;;;;;;0.30;0.30;;;;;;;8.04;86.89;94681.13;5132259;27;20474;-54
2022/01/11 08:04:55;;;;;;;0.30;0.20;;;;;;;8.40;84.09;94732.75;5131979;27;20467;-54
2022/01/11 08:07:24;;;;;;;0.30;0.20;;;;;;;8.07;82.40;94722.81;5132185;27;20509;-54
2022/01/11 08:09:53;;;;;;;0.30;0.20;;;;;;;8.32;81.84;94733.34;5131995;28;20433;-54
2022/01/11 08:12:23;;;;;;;0.30;0.20;;;;;;;8.31;80.76;94744.94;5132308;27;20462;-53
2022/01/11 08:14:52;;;;;;;0.30;0.20;;;;;;;8.43;85.39;94742.78;5132496;28;20446;-53
2022/01/11 08:17:21;;;;;;;0.30;0.20;;;;;;;7.19;88.24;94535.22;5134312;27;20470;-54
2022/01/11 08:19:49;;;;;;;0.97;0.50;;;;;;;8.24;80.28;94739.13;5136567;27;20426;-54
2022/01/11 08:22:18;;;;;;;0.30;0.20;;;;;;;8.09;88.70;94710.13;5136357;27;20499;-54
2022/01/11 08:24:46;;;;;;;0.30;0.30;;;;;;;8.22;81.75;94742.03;5136192;27;20851;-54
2022/01/11 08:27:16;;;;;;;0.33;0.30;;;;;;;8.09;82.99;94689.03;5135531;27;20430;-53
2022/01/11 08:29:47;;;;;;;0.30;0.20;;;;;;;8.27;81.96;94751.84;5136084;27;20969;-54
2022/01/11 08:32:16;;;;;;;0.40;0.40;;;;;;;8.15;80.63;94719.59;5135930;27;20490;-54
2022/01/11 08:34:44;;;;;;;0.30;0.20;;;;;;;8.45;79.24;94747.81;5135679;27;20422;-54
2022/01/11 08:37:14;;;;;;;0.87;0.87;;;;;;;8.41;79.51;94736.19;5135326;27;21042;-54
2022/01/11 08:39:43;;;;;;;0.40;0.40;;;;;;;8.12;75.76;94725.44;5135105;27;21047;-54
2022/01/11 08:42:13;;;;;;;0.30;0.20;;;;;;;8.43;84.00;94745.44;5135300;27;20431;-54
2022/01/11 08:44:41;;;;;;;0.40;0.30;;;;;;;8.37;77.63;94751.81;5135087;27;20487;-54
2022/01/11 08:47:11;;;;;;;0.47;0.47;;;;;;;8.24;75.89;94749.69;5135251;27;20470;-54
2022/01/11 08:49:40;;;;;;;2.87;1.77;;;;;;;8.17;74.15;94723.56;5134282;27;20903;-53
2022/01/11 08:52:09;;;;;;;0.30;0.20;;;;;;;8.21;74.63;94729.09;5135312;27;20957;-54
2022/01/11 08:54:38;;;;;;;0.30;0.20;;;;;;;8.07;74.71;94676.09;5135126;27;20461;-55
2022/01/11 08:57:07;;;;;;;0.30;0.20;;;;;;;8.58;73.96;94753.28;5135263;27;20470;-54
2022/01/11 08:59:36;;;;;;;0.30;0.20;;;;;;;8.10;74.71;94695.88;5134897;27;20819;-54
2022/01/11 09:02:06;;;;;;;0.30;0.20;;;;;;;8.59;72.19;94757.53;5134875;27;20523;-54
2022/01/11 09:04:36;;;;;;;0.30;0.20;;;;;;;8.44;73.98;94751.50;5134412;27;20957;-55
2022/01/11 09:07:05;;;;;;;0.30;0.20;;;;;;;7.88;74.58;94705.94;5134909;27;20463;-53
2022/01/11 09:09:34;;;;;;;0.30;0.30;;;;;;;8.42;72.66;94762.34;5135197;27;20873;-54
2022/01/11 09:12:06;;;;;;;0.30;0.20;;;;;;;8.43;73.64;94763.91;5135074;27;20853;-55
2022/01/11 09:14:35;;;;;;;0.30;0.20;;;;;;;8.11;71.60;94745.75;5135002;27;20483;-54
2022/01/11 09:17:04;;;;;;;0.50;0.50;;;;;;;8.57;81.36;94759.66;5134626;27;20805;-54
2022/01/11 09:19:33;;;;;;;0.40;0.27;;;;;;;8.48;76.07;94763.91;5134385;27;20480;-53
2022/01/11 09:22:03;;;;;;;0.30;0.30;;;;;;;7.31;74.53;94600.84;5135026;27;20945;-54
2022/01/11 09:24:36;;;;;;;0.30;0.20;;;;;;;8.55;74.20;94750.41;5134305;27;20999;-55
2022/01/11 09:27:07;;;;;;;0.30;0.20;;;;;;;8.34;73.88;94749.69;5134408;27;20439;-54
2022/01/11 09:29:37;;;;;;;0.30;0.20;;;;;;;8.49;75.05;94741.72;5133909;27;20418;-54
2022/01/11 09:32:08;;;;;;;0.30;0.20;;;;;;;8.54;86.49;94746.97;5134185;27;20922;-54
2022/01/11 09:34:38;;;;;;;0.30;0.20;;;;;;;8.53;74.62;94744.59;5134211;27;20518;-53
2022/01/11 09:37:10;;;;;;;0.30;0.20;;;;;;;8.68;74.48;94733.97;5134490;27;20483;-53
2022/01/11 09:39:42;;;;;;;0.30;0.30;;;;;;;8.66;75.31;94739.53;5134734;27;20458;-54
2022/01/11 09:42:10;;;;;;;0.30;0.30;;;;;;;8.44;75.81;94739.09;5134717;27;20479;-54
2022/01/11 09:44:39;;;;;;;0.30;0.20;;;;;;;8.43;74.60;94734.88;5134236;27;20422;-54
2022/01/11 09:47:11;;;;;;;0.30;0.20;;;;;;;8.49;72.62;94741.72;5134260;27;20437;-54
2022/01/11 09:49:40;;;;;;;0.30;0.20;;;;;;;8.68;82.48;94724.19;5134179;27;20435;-55
2022/01/11 09:52:11;;;;;;;0.30;0.20;;;;;;;8.59;72.83;94723.19;5134205;27;20435;-53
2022/01/11 09:54:43;;;;;;;0.40;0.30;;;;;;;6.10;76.33;94406.03;5133736;27;20418;-53
2022/01/11 09:57:12;;;;;;;0.40;0.30;;;;;;;8.29;76.48;94712.75;5133975;27;20430;-53
2022/01/11 09:59:41;;;;;;;0.30;0.20;;;;;;;8.21;75.42;94708.78;5133728;27;20473;-53
2022/01/11 10:02:10;;;;;;;0.30;0.20;;;;;;;8.29;74.59;94725.94;5133673;27;20470;-53
2022/01/11 10:04:39;;;;;;;0.30;0.20;;;;;;;7.23;77.08;94519.69;5133851;27;20441;-53
2022/01/11 10:07:11;;;;;;;0.30;0.20;;;;;;;8.74;77.60;94727.63;5133906;27;20437;-54
2022/01/11 10:09:45;;;;;;;0.30;0.30;;;;;;;8.68;75.81;94734.75;5134017;27;20473;-55
2022/01/11 10:12:14;;;;;;;0.30;0.20;;;;;;;8.66;73.91;94736.09;5133203;27;21195;-53
2022/01/11 10:14:48;;;;;;;0.30;0.20;;;;;;;8.47;73.85;94741.22;5134030;27;21055;-53
2022/01/11 10:17:19;;;;;;;0.40;0.40;;;;;;;8.20;70.22;94743.34;5133191;27;20423;-53
2022/01/11 10:20:00;;;;;;;0.40;0.30;;;;;;;8.30;73.58;94730.94;5133850;27;20526;-53
2022/01/11 10:22:30;;;;;;;0.30;0.23;;;;;;;8.29;69.35;94742.59;5133758;27;20483;-52
2022/01/11 10:25:00;;;;;;;0.30;0.20;;;;;;;8.35;71.89;94742.56;5133674;27;20479;-52
2022/01/11 10:27:31;;;;;;;0.30;0.30;;;;;;;8.03;71.34;94682.16;5133494;27;20938;-52
2022/01/11 10:30:04;;;;;;;0.30;0.20;;;;;;;8.40;69.26;94730.13;5133838;27;20499;-52
2022/01/11 10:32:35;;;;;;;0.30;0.30;;;;;;;8.07;71.62;94677.94;5132679;27;20442;-53
2022/01/11 10:35:07;;;;;;;0.40;0.30;;;;;;;3.35;67.06;93963.38;5133567;27;20431;-52
2022/01/11 10:37:40;;;;;;;0.30;0.20;;;;;;;7.39;68.50;94616.88;5133120;27;20521;-53
2022/01/11 10:40:15;;;;;;;0.30;0.30;;;;;;;8.12;71.96;94734.13;5132303;27;20447;-53
2022/01/11 10:42:48;;;;;;;0.30;0.20;;;;;;;8.43;79.35;94734.88;5133038;27;20827;-54
2022/01/11 10:45:21;;;;;;;0.30;0.20;;;;;;;8.18;71.68;94730.44;5133264;27;20975;-53
2022/01/11 10:47:52;;;;;;;0.30;0.30;;;;;;;8.02;74.95;94704.34;5133206;27;20427;-53
2022/01/11 10:50:27;;;;;;;0.30;0.20;;;;;;;8.21;70.68;94740.47;5133170;27;20435;-53
2022/01/11 10:52:58;;;;;;;0.30;0.20;;;;;;;8.42;67.47;94720.09;5133063;27;20426;-54
2022/01/11 10:55:29;;;;;;;0.30;0.30;;;;;;;8.36;67.07;94712.44;5133231;27;20418;-53
2022/01/11 10:58:07;;;;;;;0.30;0.20;;;;;;;8.29;65.98;94712.75;5133092;27;20427;-53
2022/01/11 11:00:37;;;;;;;0.40;0.30;;;;;;;8.05;67.99;94706.44;5132740;27;20446;-53
2022/01/11 11:03:10;;;;;;;0.30;0.20;;;;;;;8.30;71.63;94732.78;5132614;27;20483;-53
2022/01/11 11:05:41;;;;;;;0.40;0.30;;;;;;;8.31;68.97;94715.91;5132947;27;20479;-53
2022/01/11 11:08:16;;;;;;;0.30;0.20;;;;;;;6.79;68.93;94501.84;5132835;27;20433;-52
2022/01/11 11:10:48;;;;;;;0.30;0.23;;;;;;;7.94;68.61;94670.59;5132404;27;20488;-52
2022/01/11 11:13:25;;;;;;;0.30;0.20;;;;;;;7.77;68.65;94675.38;5132543;27;20502;-52
2022/01/11 11:15:56;;;;;;;0.30;0.20;;;;;;;8.23;66.25;94706.66;5132407;27;20858;-52
2022/01/11 11:18:31;;;;;;;0.30;0.20;;;;;;;8.30;67.06;94706.38;5132284;27;20531;-52
2022/01/11 11:21:16;;;;;;;0.30;0.20;;;;;;;8.22;70.15;94691.09;5132826;27;20473;-52
2022/01/11 11:23:49;;;;;;;0.30;0.20;;;;;;;8.11;69.46;94713.28;5132370;27;20487;-52
2022/01/11 11:26:17;;;;;;;0.30;0.20;;;;;;;8.02;72.01;94665.53;5132474;27;20429;-53
2022/01/11 11:28:46;;;;;;;0.30;0.20;;;;;;;4.62;73.90;94187.28;5132592;27;20496;-52
2022/01/11 11:31:15;;;;;;;0.50;0.47;;;;;;;8.13;70.30;94721.72;5132597;28;20426;-52
2022/01/11 11:33:44;;;;;;;0.30;0.20;;;;;;;8.04;70.28;94691.69;5132441;28;20427;-52
2022/01/11 11:36:15;;;;;;;0.50;0.50;;;;;;;8.39;77.07;94725.91;5132708;28;20446;-52
2022/01/11 11:38:49;;;;;;;0.30;0.20;;;;;;;8.37;69.45;94743.88;5131825;27;20462;-52
2022/01/11 11:41:18;;;;;;;0.30;0.20;;;;;;;4.47;71.65;94206.41;5132317;28;20423;-52
2022/01/11 11:44:11;;;;;;;0.30;0.20;;;;;;;8.08;67.21;94713.81;5132593;27;20857;-52
2022/01/11 11:46:45;;;;;;;0.30;0.20;;;;;;;7.79;67.76;94710.19;5132554;28;20422;-52
2022/01/11 11:49:14;;;;;;;0.30;0.20;;;;;;;7.69;69.71;94629.22;5131636;28;20430;-53
2022/01/11 11:51:44;;;;;;;0.30;0.20;;;;;;;7.83;68.99;94674.31;5133496;27;20422;-52
2022/01/11 11:54:15;;;;;;;0.30;0.20;;;;;;;8.05;68.29;94722.25;5136812;27;20462;-52